createdAt,value
2018-09-20T00:01:56.714Z,14.84
2018-09-20T00:04:26.265Z,14.75
2018-09-20T00:06:55.201Z,14.77
2018-09-20T00:09:23.988Z,14.74
2018-09-20T00:11:52.814Z,14.72
2018-09-20T00:14:21.574Z,14.70
2018-09-20T00:16:51.144Z,14.75
2018-09-20T00:19:20.339Z,14.66
2018-09-20T00:21:49.419Z,14.61
2018-09-20T00:24:19.086Z,14.57
2018-09-20T00:26:47.966Z,14.58
2018-09-20T00:29:18.089Z,14.53
2018-09-20T00:31:46.613Z,14.47
2018-09-20T00:34:15.431Z,14.36
2018-09-20T00:36:44.997Z,14.38
2018-09-20T00:39:14.514Z,14.36
2018-09-20T00:41:43.664Z,14.38
2018-09-20T00:44:12.873Z,14.44
2018-09-20T00:46:41.990Z,14.49
2018-09-20T00:49:10.945Z,14.48
2018-09-20T00:51:40.426Z,14.46
2018-09-20T00:54:09.224Z,14.31
2018-09-20T00:56:38.630Z,14.24
2018-09-20T00:59:07.605Z,14.19
2018-09-20T01:01:36.451Z,14.19
2018-09-20T01:04:05.288Z,14.19
2018-09-20T01:06:34.925Z,14.19
2018-09-20T01:09:05.120Z,14.24
2018-09-20T01:11:33.996Z,14.17
2018-09-20T01:14:03.324Z,14.08
2018-09-20T01:16:32.565Z,14.08
2018-09-20T01:19:01.319Z,14.07
2018-09-20T01:21:30.044Z,14.08
2018-09-20T01:23:58.982Z,14.06
2018-09-20T01:26:27.741Z,13.97
2018-09-20T01:28:56.590Z,13.96
2018-09-20T01:31:25.377Z,14.01
2018-09-20T01:33:54.104Z,13.95
2018-09-20T01:36:23.359Z,13.94
2018-09-20T01:38:52.735Z,13.80
2018-09-20T01:41:21.736Z,13.81
2018-09-20T01:43:51.164Z,13.77
2018-09-20T01:46:19.777Z,13.81
2018-09-20T01:48:48.453Z,13.78
2018-09-20T01:51:17.587Z,13.83
2018-09-20T01:53:46.940Z,13.78
2018-09-20T01:56:16.736Z,13.71
2018-09-20T01:58:46.516Z,13.69
2018-09-20T02:01:15.500Z,13.61
2018-09-20T02:03:44.400Z,13.49
2018-09-20T02:06:13.912Z,13.48
2018-09-20T02:08:42.916Z,13.53
2018-09-20T02:11:11.729Z,13.55
2018-09-20T02:13:40.332Z,13.51
2018-09-20T02:16:09.989Z,13.42
2018-09-20T02:18:38.661Z,13.30
2018-09-20T02:21:07.572Z,13.31
2018-09-20T02:23:37.542Z,13.20
2018-09-20T02:26:06.417Z,13.14
2018-09-20T02:28:36.021Z,13.19
2018-09-20T02:31:05.235Z,13.23
2018-09-20T02:33:34.659Z,13.24
2018-09-20T02:36:03.285Z,13.35
2018-09-20T02:38:32.775Z,13.32
2018-09-20T02:41:02.211Z,13.29
2018-09-20T02:43:31.138Z,13.26
2018-09-20T02:46:00.626Z,13.29
2018-09-20T02:48:30.082Z,13.29
2018-09-20T02:50:59.190Z,13.25
2018-09-20T02:53:28.216Z,13.16
2018-09-20T02:55:57.630Z,13.08
2018-09-20T02:58:26.744Z,13.06
2018-09-20T03:00:55.696Z,13.11
2018-09-20T03:03:25.119Z,13.13
2018-09-20T03:05:53.707Z,13.10
2018-09-20T03:08:22.552Z,13.04
2018-09-20T03:10:51.705Z,12.93
2018-09-20T03:13:20.997Z,12.96
2018-09-20T03:15:49.875Z,12.95
2018-09-20T03:18:20.373Z,12.95
2018-09-20T03:20:49.067Z,12.91
2018-09-20T03:23:17.906Z,12.95
2018-09-20T03:25:46.819Z,12.85
2018-09-20T03:28:15.537Z,12.79
2018-09-20T03:30:44.539Z,12.82
2018-09-20T03:33:13.811Z,12.87
2018-09-20T03:35:43.013Z,12.95
2018-09-20T03:38:12.436Z,12.95
2018-09-20T03:40:41.355Z,12.84
2018-09-20T03:43:11.035Z,12.77
2018-09-20T03:45:39.972Z,12.66
2018-09-20T03:48:09.127Z,12.63
2018-09-20T03:52:02.279Z,12.57
2018-09-20T03:54:31.430Z,12.68
2018-09-20T03:57:00.357Z,12.69
2018-09-20T03:59:30.172Z,12.74
2018-09-20T04:02:00.270Z,12.70
2018-09-20T04:04:28.961Z,12.70
2018-09-20T04:06:57.640Z,12.71
2018-09-20T04:09:26.759Z,12.68
2018-09-20T04:14:55.496Z,12.48
2018-09-20T04:17:24.667Z,12.44
2018-09-20T04:19:54.332Z,12.42
2018-09-20T04:22:23.112Z,12.43
2018-09-20T04:24:52.468Z,12.40
2018-09-20T04:27:21.247Z,12.36
2018-09-20T04:29:50.015Z,12.35
2018-09-20T04:32:19.215Z,12.36
2018-09-20T04:34:47.981Z,12.36
2018-09-20T04:37:17.416Z,12.41
2018-09-20T04:39:46.941Z,12.35
2018-09-20T04:42:15.841Z,12.31
2018-09-20T04:44:44.766Z,12.32
2018-09-20T04:47:14.080Z,12.34
2018-09-20T04:49:42.772Z,12.32
2018-09-20T04:52:12.087Z,12.35
2018-09-20T04:54:41.113Z,12.36
2018-09-20T04:57:10.193Z,12.34
2018-09-20T04:59:39.298Z,12.25
2018-09-20T05:02:08.078Z,12.21
2018-09-20T05:04:37.072Z,12.16
2018-09-20T05:07:05.969Z,12.15
2018-09-20T05:09:35.458Z,12.19
2018-09-20T05:12:04.603Z,12.14
2018-09-20T05:14:34.013Z,12.10
2018-09-20T05:17:03.484Z,12.07
2018-09-20T05:19:32.661Z,12.11
2018-09-20T05:22:06.472Z,12.17
2018-09-20T05:24:35.484Z,12.23
2018-09-20T05:27:04.918Z,12.30
2018-09-20T05:29:34.026Z,12.38
2018-09-20T05:32:03.421Z,12.45
2018-09-20T05:34:32.178Z,12.49
2018-09-20T05:37:01.769Z,12.49
2018-09-20T05:39:30.649Z,12.66
2018-09-20T05:41:59.452Z,12.79
2018-09-20T05:44:28.481Z,12.94
2018-09-20T05:46:57.770Z,13.04
2018-09-20T05:49:27.063Z,13.13
2018-09-20T05:51:56.017Z,13.24
2018-09-20T05:54:24.897Z,13.31
2018-09-20T05:56:53.681Z,13.49
2018-09-20T05:59:22.673Z,13.59
2018-09-20T06:01:52.283Z,13.59
2018-09-20T06:04:21.283Z,13.81
2018-09-20T06:06:50.073Z,13.86
2018-09-20T06:10:43.235Z,13.97
2018-09-20T06:13:12.092Z,14.24
2018-09-20T06:15:41.057Z,14.54
2018-09-20T06:18:10.152Z,14.69
2018-09-20T06:20:39.187Z,14.83
2018-09-20T06:23:08.756Z,15.08
2018-09-20T06:25:37.951Z,15.44
2018-09-20T06:28:08.588Z,15.92
2018-09-20T06:30:37.721Z,16.38
2018-09-20T06:33:06.697Z,16.41
2018-09-20T06:35:35.712Z,16.85
2018-09-20T06:38:05.077Z,17.31
2018-09-20T06:40:34.722Z,17.55
2018-09-20T06:43:04.309Z,18.12
2018-09-20T06:45:33.674Z,18.58
2018-09-20T06:48:03.018Z,19.12
2018-09-20T06:50:32.143Z,19.68
2018-09-20T06:53:00.888Z,19.98
2018-09-20T06:55:29.594Z,20.55
2018-09-20T06:57:58.553Z,20.55
2018-09-20T07:00:27.277Z,20.71
2018-09-20T07:02:56.042Z,20.97
2018-09-20T07:05:24.824Z,21.96
2018-09-20T07:07:53.744Z,21.96
2018-09-20T07:10:22.583Z,22.58
2018-09-20T07:12:52.241Z,23.06
2018-09-20T07:15:21.650Z,22.95
2018-09-20T07:17:50.648Z,23.27
2018-09-20T07:20:20.088Z,23.74
2018-09-20T07:22:49.142Z,24.20
2018-09-20T07:25:18.149Z,24.96
2018-09-20T07:27:46.764Z,25.36
2018-09-20T07:30:16.387Z,25.95
2018-09-20T07:32:45.999Z,26.00
2018-09-20T07:35:14.918Z,26.05
2018-09-20T07:37:43.551Z,26.19
2018-09-20T07:40:12.385Z,26.74
2018-09-20T07:42:41.100Z,27.21
2018-09-20T07:45:09.732Z,27.03
2018-09-20T07:47:38.448Z,27.57
2018-09-20T07:50:08.648Z,27.89
2018-09-20T07:52:37.776Z,27.78
2018-09-20T07:55:06.642Z,28.94
2018-09-20T07:57:35.448Z,29.12
2018-09-20T08:00:04.439Z,29.59
2018-09-20T08:02:33.127Z,30.42
2018-09-20T08:05:02.106Z,30.07
2018-09-20T08:07:30.824Z,30.06
2018-09-20T08:09:59.398Z,30.52
2018-09-20T08:12:28.706Z,30.95
2018-09-20T08:14:58.447Z,31.33
2018-09-20T08:17:28.029Z,30.97
2018-09-20T08:19:57.222Z,31.55
2018-09-20T08:22:26.068Z,31.96
2018-09-20T08:24:55.711Z,32.95
2018-09-20T08:27:25.009Z,33.48
2018-09-20T08:29:53.987Z,33.98
2018-09-20T08:32:22.662Z,34.39
2018-09-20T08:34:51.667Z,35.02
2018-09-20T08:37:20.910Z,35.38
2018-09-20T08:39:50.213Z,35.49
2018-09-20T08:42:19.316Z,35.97
2018-09-20T08:44:48.602Z,35.92
2018-09-20T08:47:18.037Z,35.22
2018-09-20T08:49:47.052Z,35.66
2018-09-20T08:52:16.308Z,37.02
2018-09-20T08:54:45.573Z,37.02
2018-09-20T08:57:14.466Z,37.59
2018-09-20T08:59:43.680Z,37.66
2018-09-20T09:02:12.847Z,37.00
2018-09-20T09:04:41.959Z,37.66
2018-09-20T09:07:11.519Z,38.24
2018-09-20T09:09:40.748Z,38.99
2018-09-20T09:12:10.226Z,39.39
2018-09-20T09:14:40.247Z,40.13
2018-09-20T09:17:11.696Z,40.15
2018-09-20T09:19:40.873Z,41.31
2018-09-20T09:22:10.011Z,41.17
2018-09-20T09:24:39.049Z,42.71
2018-09-20T09:27:09.273Z,41.27
2018-09-20T09:29:38.248Z,42.07
2018-09-20T09:32:07.299Z,41.56
2018-09-20T09:34:36.498Z,41.80
2018-09-20T09:37:06.306Z,41.88
2018-09-20T09:39:35.328Z,41.47
2018-09-20T09:42:05.016Z,41.44
2018-09-20T09:44:33.852Z,42.44
2018-09-20T09:47:03.017Z,44.11
2018-09-20T09:49:33.222Z,43.98
2018-09-20T09:52:02.460Z,43.51
2018-09-20T09:54:32.671Z,44.27
2018-09-20T09:57:01.884Z,45.17
2018-09-20T09:59:31.194Z,45.92
2018-09-20T10:02:00.489Z,46.07
2018-09-20T10:04:30.028Z,46.90
2018-09-20T10:06:59.889Z,47.26
2018-09-20T10:09:29.008Z,46.74
2018-09-20T10:11:58.828Z,46.67
2018-09-20T10:14:28.422Z,44.95
2018-09-20T10:16:57.653Z,47.01
2018-09-20T10:19:26.960Z,46.79
2018-09-20T10:21:56.117Z,47.82
2018-09-20T10:24:25.269Z,48.05
2018-09-20T10:26:54.493Z,48.29
2018-09-20T10:29:23.688Z,48.74
2018-09-20T10:31:53.872Z,48.41
2018-09-20T10:34:23.563Z,48.89
2018-09-20T10:36:52.509Z,48.75
2018-09-20T10:39:21.903Z,48.62
2018-09-20T10:41:51.968Z,48.00
2018-09-20T10:44:21.108Z,47.62
2018-09-20T10:46:50.539Z,48.90
2018-09-20T10:49:19.634Z,48.37
2018-09-20T10:51:48.853Z,48.39
2018-09-20T10:54:18.124Z,48.70
2018-09-20T10:56:47.160Z,47.35
2018-09-20T10:59:16.285Z,46.00
2018-09-20T11:01:45.513Z,45.32
2018-09-20T11:04:15.028Z,46.58
2018-09-20T11:06:44.027Z,46.67
2018-09-20T11:09:12.815Z,46.36
2018-09-20T11:11:41.585Z,46.58
2018-09-20T11:14:10.547Z,46.91
2018-09-20T11:16:39.934Z,48.46
2018-09-20T11:19:08.583Z,47.79
2018-09-20T11:21:37.426Z,47.57
2018-09-20T11:24:06.510Z,47.92
2018-09-20T11:26:35.369Z,48.54
2018-09-20T11:29:04.157Z,48.07
2018-09-20T11:31:32.773Z,48.91
2018-09-20T11:34:01.569Z,48.45
2018-09-20T11:36:30.719Z,48.35
2018-09-20T11:38:59.976Z,48.73
2018-09-20T11:41:29.255Z,49.63
2018-09-20T11:43:59.020Z,48.93
2018-09-20T11:46:28.767Z,48.94
2018-09-20T11:48:57.986Z,50.57
2018-09-20T11:51:27.035Z,50.76
2018-09-20T11:53:56.009Z,47.73
2018-09-20T11:56:25.005Z,49.59
2018-09-20T11:58:54.700Z,49.61
2018-09-20T12:01:24.559Z,48.94
2018-09-20T12:03:53.405Z,47.99
2018-09-20T12:06:22.393Z,48.17
2018-09-20T12:08:51.541Z,49.74
2018-09-20T12:11:20.947Z,49.26
2018-09-20T12:13:50.199Z,49.69
2018-09-20T12:16:19.998Z,50.09
2018-09-20T12:18:49.214Z,50.64
2018-09-20T12:21:18.561Z,50.46
2018-09-20T12:23:48.029Z,49.67
2018-09-20T12:26:17.238Z,50.03
2018-09-20T12:28:46.544Z,49.96
2018-09-20T12:31:15.550Z,50.11
2018-09-20T12:33:44.894Z,49.79
2018-09-20T12:36:14.129Z,46.56
2018-09-20T12:38:43.374Z,44.20
2018-09-20T12:41:13.269Z,42.33
2018-09-20T12:43:42.799Z,42.73
2018-09-20T12:46:11.999Z,40.93
2018-09-20T12:48:43.038Z,41.06
2018-09-20T12:51:12.585Z,43.01
2018-09-20T12:53:41.490Z,45.47
2018-09-20T12:56:10.800Z,47.32
2018-09-20T12:58:42.933Z,47.80
2018-09-20T13:01:12.090Z,49.01
2018-09-20T13:03:41.283Z,47.21
2018-09-20T13:06:11.480Z,49.05
2018-09-20T13:08:40.775Z,48.90
2018-09-20T13:11:09.849Z,47.89
2018-09-20T13:13:39.239Z,46.99
2018-09-20T13:16:08.524Z,47.67
2018-09-20T13:18:38.578Z,48.26
2018-09-20T13:21:07.759Z,46.77
2018-09-20T13:23:37.295Z,46.20
2018-09-20T13:26:06.184Z,46.18
2018-09-20T13:28:34.899Z,47.24
2018-09-20T13:31:03.945Z,47.39
2018-09-20T13:33:32.999Z,48.05
2018-09-20T13:36:02.180Z,47.77
2018-09-20T13:38:31.431Z,48.15
2018-09-20T13:41:34.619Z,48.07
2018-09-20T13:44:03.299Z,46.59
2018-09-20T13:46:32.109Z,44.50
2018-09-20T13:49:02.063Z,43.98
2018-09-20T13:51:31.403Z,42.55
2018-09-20T13:54:02.141Z,40.79
2018-09-20T13:56:31.161Z,39.93
2018-09-20T13:59:00.463Z,38.88
2018-09-20T14:01:29.614Z,39.13
2018-09-20T14:03:58.757Z,39.52
2018-09-20T14:06:28.126Z,39.75
2018-09-20T14:08:57.312Z,39.25
2018-09-20T14:11:26.373Z,38.85
2018-09-20T14:13:55.599Z,37.41
2018-09-20T14:16:24.855Z,37.20
2018-09-20T14:18:54.090Z,37.06
2018-09-20T14:21:23.330Z,36.93
2018-09-20T14:23:52.663Z,36.72
2018-09-20T14:26:21.647Z,36.07
2018-09-20T14:28:51.006Z,35.92
2018-09-20T14:31:20.120Z,35.98
2018-09-20T14:33:48.982Z,35.90
2018-09-20T14:36:18.585Z,35.10
2018-09-20T14:38:47.723Z,35.18
2018-09-20T14:41:16.638Z,34.95
2018-09-20T14:43:45.375Z,34.75
2018-09-20T14:46:14.464Z,34.01
2018-09-20T14:48:43.303Z,34.31
2018-09-20T14:51:13.889Z,33.93
2018-09-20T14:53:43.029Z,33.91
2018-09-20T14:56:12.219Z,33.63
2018-09-20T14:58:41.764Z,33.59
2018-09-20T15:01:10.938Z,33.32
2018-09-20T15:03:40.025Z,33.27
2018-09-20T15:06:09.385Z,33.33
2018-09-20T15:08:38.579Z,32.93
2018-09-20T15:11:07.731Z,32.84
2018-09-20T15:13:37.169Z,32.81
2018-09-20T15:16:06.105Z,32.49
2018-09-20T15:18:35.118Z,32.64
2018-09-20T15:21:04.731Z,32.72
2018-09-20T15:23:33.849Z,32.41
2018-09-20T15:26:03.046Z,32.40
2018-09-20T15:28:31.890Z,32.30
2018-09-20T15:31:02.601Z,32.10
2018-09-20T15:33:31.714Z,31.95
2018-09-20T15:36:00.975Z,32.00
2018-09-20T15:38:29.681Z,31.72
2018-09-20T15:40:59.290Z,31.69
2018-09-20T15:43:28.559Z,31.32
2018-09-20T15:45:58.658Z,30.83
2018-09-20T15:48:28.046Z,30.82
2018-09-20T15:50:57.212Z,30.72
2018-09-20T15:53:26.267Z,30.73
2018-09-20T15:55:56.000Z,30.78
2018-09-20T15:58:25.028Z,30.53
2018-09-20T16:00:54.215Z,30.38
2018-09-20T16:03:23.052Z,30.20
2018-09-20T16:05:51.786Z,30.19
2018-09-20T16:08:20.817Z,30.03
2018-09-20T16:10:50.082Z,29.91
2018-09-20T16:13:20.189Z,29.72
2018-09-20T16:15:49.296Z,29.48
2018-09-20T16:18:18.621Z,29.23
2018-09-20T16:20:47.470Z,28.98
2018-09-20T16:23:16.323Z,28.58
2018-09-20T16:25:45.478Z,28.54
2018-09-20T16:31:33.511Z,27.72
2018-09-20T16:34:20.401Z,27.50
2018-09-20T16:37:17.674Z,27.41
2018-09-20T16:39:46.587Z,27.42
2018-09-20T16:42:17.672Z,27.42
2018-09-20T16:44:45.566Z,27.34
2018-09-20T16:47:14.776Z,27.38
2018-09-20T16:49:43.481Z,27.17
2018-09-20T16:52:12.413Z,27.17
2018-09-20T16:54:40.280Z,27.10
2018-09-20T16:57:08.516Z,27.11
2018-09-20T16:59:37.747Z,27.11
2018-09-20T17:02:06.024Z,26.98
2018-09-20T17:04:34.799Z,26.79
2018-09-20T17:07:03.798Z,26.72
2018-09-20T17:09:31.769Z,26.51
2018-09-20T17:12:00.780Z,26.46
2018-09-20T17:14:30.590Z,26.37
2018-09-20T17:16:59.556Z,26.15
2018-09-20T17:19:27.606Z,25.97
2018-09-20T17:21:56.567Z,25.62
2018-09-20T17:24:26.413Z,25.56
2018-09-20T17:26:55.237Z,25.42
2018-09-20T17:29:24.708Z,25.31
2018-09-20T17:31:53.650Z,25.23
2018-09-20T17:34:23.251Z,25.18
2018-09-20T17:36:53.622Z,25.09
2018-09-20T17:39:24.260Z,24.93
2018-09-20T17:41:54.947Z,24.81
2018-09-20T17:44:22.921Z,24.77
2018-09-20T17:46:51.431Z,24.42
2018-09-20T17:49:19.401Z,24.26
2018-09-20T17:51:48.333Z,24.16
2018-09-20T17:54:17.850Z,24.08
2018-09-20T17:56:47.652Z,23.87
2018-09-20T17:59:17.417Z,23.82
2018-09-20T18:01:46.780Z,23.63
2018-09-20T18:04:15.715Z,23.50
2018-09-20T18:06:46.132Z,23.47
2018-09-20T18:09:15.117Z,23.56
2018-09-20T18:11:44.096Z,23.57
2018-09-20T18:14:13.847Z,23.27
2018-09-20T18:16:42.927Z,23.28
2018-09-20T18:19:12.040Z,23.23
2018-09-20T18:21:41.202Z,23.20
2018-09-20T18:24:10.322Z,23.17
2018-09-20T18:26:39.578Z,23.04
2018-09-20T18:29:08.895Z,22.63
2018-09-20T18:31:38.103Z,22.71
2018-09-20T18:34:07.578Z,22.68
2018-09-20T18:36:36.852Z,22.02
2018-09-20T18:39:08.788Z,21.82
2018-09-20T18:41:37.884Z,21.71
2018-09-20T18:44:07.321Z,21.52
2018-09-20T18:46:36.386Z,21.37
2018-09-20T18:49:05.837Z,21.27
2018-09-20T18:51:34.869Z,21.45
2018-09-20T18:54:05.025Z,21.50
2018-09-20T18:56:34.387Z,21.58
2018-09-20T18:59:03.508Z,21.48
2018-09-20T19:01:32.776Z,21.43
2018-09-20T19:04:01.481Z,21.38
2018-09-20T19:06:31.218Z,21.28
2018-09-20T19:09:00.412Z,21.29
2018-09-20T19:11:29.786Z,21.22
2018-09-20T19:13:57.870Z,21.05
2018-09-20T19:16:27.807Z,20.77
2018-09-20T19:18:57.316Z,20.72
2018-09-20T19:21:26.432Z,20.48
2018-09-20T19:23:55.268Z,20.24
2018-09-20T19:26:23.947Z,20.03
2018-09-20T19:28:53.302Z,19.78
2018-09-20T19:31:22.401Z,19.66
2018-09-20T19:33:50.403Z,19.68
2018-09-20T19:36:19.407Z,19.78
2018-09-20T19:38:49.052Z,19.87
2018-09-20T19:41:18.249Z,19.78
2018-09-20T19:43:47.507Z,19.73
2018-09-20T19:46:16.651Z,19.78
2018-09-20T19:48:45.612Z,19.87
2018-09-20T19:51:15.189Z,19.85
2018-09-20T19:53:44.263Z,19.75
2018-09-20T19:56:13.583Z,19.70
2018-09-20T19:58:42.795Z,19.36
2018-09-20T20:01:12.575Z,19.15
2018-09-20T20:03:42.355Z,19.27
2018-09-20T20:06:11.501Z,19.07
2018-09-20T20:08:41.509Z,18.91
2018-09-20T20:11:11.105Z,18.69
2018-09-20T20:13:40.308Z,18.82
2018-09-20T20:16:09.355Z,18.67
2018-09-20T20:18:38.588Z,18.63
2018-09-20T20:21:06.947Z,18.70
2018-09-20T20:23:36.029Z,18.75
2018-09-20T20:26:05.265Z,18.79
2018-09-20T20:28:34.544Z,18.78
2018-09-20T20:31:03.687Z,18.60
2018-09-20T20:33:32.875Z,18.59
2018-09-20T20:36:02.813Z,18.47
2018-09-20T20:38:31.557Z,18.45
2018-09-20T20:41:00.519Z,18.46
2018-09-20T20:43:29.891Z,18.47
2018-09-20T20:45:59.122Z,18.37
2018-09-20T20:48:28.274Z,18.40
2018-09-20T20:50:56.924Z,18.24
2018-09-20T20:53:25.724Z,18.10
2018-09-20T20:55:54.605Z,17.97
2018-09-20T20:58:24.101Z,17.77
2018-09-20T21:00:53.589Z,17.70
2018-09-20T21:03:22.651Z,17.49
2018-09-20T21:05:52.105Z,17.45
2018-09-20T21:08:20.983Z,17.44
2018-09-20T21:10:50.243Z,17.42
2018-09-20T21:13:19.104Z,17.64
2018-09-20T21:15:47.872Z,17.55
2018-09-20T21:18:17.002Z,17.57
2018-09-20T21:20:48.176Z,17.44
2018-09-20T21:23:17.320Z,17.46
2018-09-20T21:25:46.457Z,17.46
2018-09-20T21:28:16.095Z,17.46
2018-09-20T21:30:45.141Z,17.36
2018-09-20T21:33:14.217Z,17.30
2018-09-20T21:35:43.190Z,17.02
2018-09-20T21:38:11.749Z,16.88
2018-09-20T21:40:40.520Z,16.98
2018-09-20T21:43:10.092Z,17.00
2018-09-20T21:45:38.861Z,16.96
2018-09-20T21:48:07.861Z,16.89
2018-09-20T21:50:36.823Z,16.98
2018-09-20T21:53:06.031Z,16.85
2018-09-20T21:55:35.593Z,16.86
2018-09-20T21:58:04.466Z,16.82
2018-09-20T22:00:33.673Z,16.59
2018-09-20T22:03:04.272Z,16.53
2018-09-20T22:05:34.480Z,16.48
2018-09-20T22:08:03.323Z,16.58
2018-09-20T22:10:32.661Z,16.54
2018-09-20T22:13:01.721Z,16.48
2018-09-20T22:15:31.927Z,16.50
2018-09-20T22:18:01.268Z,16.31
2018-09-20T22:20:31.294Z,16.20
2018-09-20T22:23:01.662Z,16.19
2018-09-20T22:25:30.914Z,16.28
2018-09-20T22:27:59.832Z,16.24
2018-09-20T22:30:28.609Z,16.21
2018-09-20T22:32:57.542Z,16.19
2018-09-20T22:35:26.282Z,16.14
2018-09-20T22:37:56.872Z,16.13
2018-09-20T22:40:25.798Z,16.17
2018-09-20T22:42:54.631Z,16.06
2018-09-20T22:45:23.756Z,16.04
2018-09-20T22:47:52.527Z,15.93
2018-09-20T22:50:21.279Z,15.91
2018-09-20T22:52:51.254Z,15.78
2018-09-20T22:55:20.467Z,15.67
2018-09-20T22:57:49.781Z,15.70
2018-09-20T23:00:24.093Z,15.71
2018-09-20T23:02:54.435Z,15.66
2018-09-20T23:05:23.177Z,15.63
2018-09-20T23:07:52.079Z,15.64
2018-09-20T23:10:21.011Z,15.61
2018-09-20T23:12:49.912Z,15.55
2018-09-20T23:15:19.193Z,15.63
2018-09-20T23:17:47.920Z,15.33
2018-09-20T23:20:17.422Z,15.20
2018-09-20T23:22:46.859Z,15.03
2018-09-20T23:25:17.082Z,14.90
2018-09-20T23:27:45.834Z,14.85
2018-09-20T23:30:14.593Z,14.97
2018-09-20T23:32:43.668Z,14.91
2018-09-20T23:35:13.107Z,14.88
2018-09-20T23:37:42.154Z,14.89
2018-09-20T23:40:11.316Z,14.80
2018-09-20T23:42:41.528Z,14.83
2018-09-20T23:45:11.238Z,14.84
2018-09-20T23:47:40.018Z,14.70
2018-09-20T23:50:09.261Z,14.58
2018-09-20T23:52:38.458Z,14.58
2018-09-20T23:55:07.708Z,14.61
2018-09-20T23:57:36.476Z,14.60
